Terminal Aerodrome Forecast
Issued by NWS Grand Forks, ND

Home | Current Version | Previous Version | Text Only | Print | Product List | Glossary Off
Versions: 1 2 3 4 5 6 7 8 9 10 11 12 13 14 15 16 17 18 19 20 21 22 23 24 25 26

645
FTUS43 KFGF 061120
TAFFAR
TAF
KFAR 061120Z 0612/0712 18009KT P6SM SCT200
     FM061700 19013KT P6SM BKN200
     FM062100 20015G22KT P6SM BKN100
     FM070400 24022G30KT P6SM BKN050=

USA.gov is the U.S. government's official web portal to all federal, state and local government web resources and services.